Time;durP1;ratioP1;P1;durP2;ratioP2;P2;SDS_P1;SDS_P2;PMS_P1;PMS_P2;Temp;Humidity;BMP_temperature;BMP_pressure;BME280_temperature;BME280_humidity;BME280_pressure;Samples;Min_cycle;Max_cycle;Signal;HPM_P1;HPM_P2
2023/03/17 00:02:15;;;;;;;5.22;1.80;;;;;;;;;;6120261;23;20055;-87
2023/03/17 00:04:40;;;;;;;5.15;2.20;;;;;;;;;;6146717;23;20017;-86
2023/03/17 00:07:07;;;;;;;4.68;2.10;;;;;;;;;;6145471;23;20028;-85
2023/03/17 00:09:32;;;;;;;6.95;2.28;;;;;;;;;;6144859;23;20021;-86
2023/03/17 00:11:59;;;;;;;6.50;2.05;;;;;;;;;;6143438;23;20475;-86
2023/03/17 00:14:25;;;;;;;5.18;2.05;;;;;;;;;;6144063;23;20017;-88
2023/03/17 00:16:51;;;;;;;5.45;2.05;;;;;;;;;;6118625;23;20018;-87
2023/03/17 00:19:22;;;;;;;6.40;2.50;;;;;;;;;;6146951;23;20017;-88
2023/03/17 00:21:48;;;;;;;3.85;2.30;;;;;;;;;;6144334;23;20033;-87
2023/03/17 00:24:14;;;;;;;5.07;2.45;;;;;;;;;;6120435;23;20026;-87
2023/03/17 00:26:40;;;;;;;6.85;2.50;;;;;;;;;;6146171;23;20048;-87
2023/03/17 00:29:05;;;;;;;5.20;2.20;;;;;;;;;;6144789;23;20017;-86
2023/03/17 00:31:33;;;;;;;5.78;2.50;;;;;;;;;;6143546;23;20017;-86
2023/03/17 00:33:59;;;;;;;6.88;2.65;;;;;;;;;;6144782;23;20014;-86
2023/03/17 00:36:29;;;;;;;6.15;2.45;;;;;;;;;;6143001;23;20025;-86
2023/03/17 00:38:56;;;;;;;5.57;2.25;;;;;;;;;;6094817;23;20017;-85
2023/03/17 00:41:22;;;;;;;5.43;2.70;;;;;;;;;;6093363;23;20044;-85
2023/03/17 00:43:48;;;;;;;6.20;2.53;;;;;;;;;;6120884;23;20037;-86
2023/03/17 00:46:21;;;;;;;6.28;1.90;;;;;;;;;;6095151;23;20049;-87
2023/03/17 00:48:47;;;;;;;6.22;2.67;;;;;;;;;;6120035;23;20024;-86
2023/03/17 00:51:15;;;;;;;7.40;2.92;;;;;;;;;;6119431;23;20474;-87
2023/03/17 00:53:43;;;;;;;;;;;;;;;;;;6119807;23;20026;-87
2023/03/17 00:56:17;;;;;;;6.57;2.63;;;;;;;;;;6144972;23;20367;-86
2023/03/17 00:58:43;;;;;;;9.80;2.90;;;;;;;;;;6094650;23;20020;-85
2023/03/17 01:01:09;;;;;;;7.32;2.67;;;;;;;;;;6094202;23;20021;-86
2023/03/17 01:03:35;;;;;;;5.90;2.70;;;;;;;;;;6094677;23;20099;-86
2023/03/17 01:06:03;;;;;;;7.90;2.35;;;;;;;;;;6119084;23;20043;-86
2023/03/17 01:08:29;;;;;;;;;;;;;;;;;;6095591;23;20482;-87
2023/03/17 01:10:55;;;;;;;8.68;3.25;;;;;;;;;;6119377;23;19913;-86
2023/03/17 01:13:21;;;;;;;6.18;2.78;;;;;;;;;;6120285;23;20018;-85
2023/03/17 01:15:47;;;;;;;6.38;2.72;;;;;;;;;;6119494;23;20009;-86
2023/03/17 01:18:15;;;;;;;7.20;3.10;;;;;;;;;;6095352;23;20017;-87
2023/03/17 01:20:41;;;;;;;7.40;3.17;;;;;;;;;;6094462;23;20021;-87
2023/03/17 01:23:10;;;;;;;5.55;2.70;;;;;;;;;;6119738;23;20023;-86
2023/03/17 01:25:38;;;;;;;6.65;2.47;;;;;;;;;;6095223;23;20021;-86
2023/03/17 01:28:04;;;;;;;6.32;2.60;;;;;;;;;;6094897;23;20324;-87
2023/03/17 01:30:38;;;;;;;7.15;2.95;;;;;;;;;;6094327;23;20049;-86
2023/03/17 01:33:05;;;;;;;8.20;2.80;;;;;;;;;;6095582;23;20355;-86
2023/03/17 01:35:31;;;;;;;7.03;2.90;;;;;;;;;;6117164;23;20335;-86
2023/03/17 01:37:59;;;;;;;5.30;2.85;;;;;;;;;;6112334;23;20029;-86
2023/03/17 01:40:31;;;;;;;4.95;2.58;;;;;;;;;;6145076;23;20328;-85
2023/03/17 01:43:01;;;;;;;9.48;2.80;;;;;;;;;;6143234;23;20018;-86
2023/03/17 01:46:05;;;;;;;6.80;2.95;;;;;;;;;;6145091;23;20459;-86
2023/03/17 01:48:36;;;;;;;5.68;2.78;;;;;;;;;;6144879;23;20036;-86
2023/03/17 01:51:03;;;;;;;8.15;3.08;;;;;;;;;;6143042;23;20033;-86
2023/03/17 01:53:29;;;;;;;6.20;3.07;;;;;;;;;;6118597;23;20064;-86
2023/03/17 01:55:55;;;;;;;7.43;3.30;;;;;;;;;;6117940;23;20412;-85
2023/03/17 01:58:22;;;;;;;10.00;3.67;;;;;;;;;;6119575;23;20398;-86
2023/03/17 02:00:49;;;;;;;6.97;3.17;;;;;;;;;;6144517;23;20013;-86
2023/03/17 02:03:15;;;;;;;6.82;3.15;;;;;;;;;;6143138;23;20219;-86
2023/03/17 02:05:41;;;;;;;7.22;3.33;;;;;;;;;;6118890;23;20358;-86
2023/03/17 02:08:12;;;;;;;11.50;3.45;;;;;;;;;;6144411;23;20017;-86
2023/03/17 02:10:38;;;;;;;6.70;3.15;;;;;;;;;;6118295;23;20585;-86
2023/03/17 02:13:04;;;;;;;7.10;3.45;;;;;;;;;;6144157;23;20009;-86
2023/03/17 02:15:48;;;;;;;7.80;3.42;;;;;;;;;;6142895;23;20085;-87
2023/03/17 02:18:16;;;;;;;7.55;3.33;;;;;;;;;;6145056;23;20404;-87
2023/03/17 02:20:44;;;;;;;;;;;;;;;;;;6119103;23;20072;-87
2023/03/17 02:23:10;;;;;;;7.78;3.55;;;;;;;;;;6143357;23;20350;-87
2023/03/17 02:25:37;;;;;;;9.75;3.28;;;;;;;;;;6142599;23;20483;-86
2023/03/17 02:28:09;;;;;;;7.30;3.00;;;;;;;;;;6142640;23;20020;-85
2023/03/17 02:30:35;;;;;;;8.35;3.40;;;;;;;;;;6143139;23;20041;-87
2023/03/17 02:33:02;;;;;;;6.80;3.38;;;;;;;;;;6143425;23;20013;-86
2023/03/17 02:35:28;;;;;;;6.18;3.20;;;;;;;;;;6119154;23;20459;-86
2023/03/17 02:37:53;;;;;;;6.20;3.40;;;;;;;;;;6143132;23;20025;-87
2023/03/17 02:40:19;;;;;;;6.68;3.53;;;;;;;;;;6144959;23;20076;-86
2023/03/17 02:42:44;;;;;;;6.97;3.30;;;;;;;;;;6143941;23;20017;-87
2023/03/17 02:45:11;;;;;;;8.38;3.67;;;;;;;;;;6142407;23;20426;-87
2023/03/17 02:47:37;;;;;;;6.75;3.33;;;;;;;;;;6144916;23;20025;-87
2023/03/17 02:50:03;;;;;;;8.55;3.35;;;;;;;;;;6143987;23;20455;-87
2023/03/17 02:52:29;;;;;;;10.13;3.42;;;;;;;;;;6116923;23;20403;-86
2023/03/17 02:54:55;;;;;;;9.20;3.75;;;;;;;;;;6143790;23;20346;-87
2023/03/17 02:57:21;;;;;;;5.35;3.00;;;;;;;;;;6142728;23;20100;-87
2023/03/17 02:59:46;;;;;;;6.82;3.45;;;;;;;;;;6120626;23;20029;-86
2023/03/17 03:02:13;;;;;;;6.57;3.50;;;;;;;;;;6144539;23;20013;-86
2023/03/17 03:04:38;;;;;;;7.95;3.80;;;;;;;;;;6145380;23;20368;-87
2023/03/17 03:07:04;;;;;;;8.40;4.00;;;;;;;;;;6142956;23;20013;-87
2023/03/17 03:09:30;;;;;;;8.38;3.38;;;;;;;;;;6118327;23;20026;-87
2023/03/17 03:11:56;;;;;;;7.93;3.58;;;;;;;;;;6145737;23;20017;-86
2023/03/17 03:14:21;;;;;;;7.10;3.30;;;;;;;;;;6118653;23;20029;-85
2023/03/17 03:16:47;;;;;;;6.97;3.30;;;;;;;;;;6143543;23;20017;-87
2023/03/17 03:19:12;;;;;;;6.55;3.28;;;;;;;;;;6119033;23;20359;-87
2023/03/17 03:21:39;;;;;;;9.55;3.65;;;;;;;;;;6118666;23;20021;-86
2023/03/17 03:24:06;;;;;;;8.00;3.27;;;;;;;;;;6119222;23;20013;-87
2023/03/17 03:26:31;;;;;;;7.15;3.83;;;;;;;;;;6142427;23;20271;-86
2023/03/17 03:28:58;;;;;;;7.47;3.30;;;;;;;;;;6143333;23;20109;-86
2023/03/17 03:31:24;;;;;;;5.45;3.20;;;;;;;;;;6142450;23;20094;-86
2023/03/17 03:33:50;;;;;;;7.40;3.30;;;;;;;;;;6118541;23;20018;-86
2023/03/17 03:36:16;;;;;;;7.07;3.90;;;;;;;;;;6118832;23;20538;-86
2023/03/17 03:38:41;;;;;;;8.05;3.35;;;;;;;;;;6119657;23;20463;-86
2023/03/17 03:41:07;;;;;;;7.10;3.45;;;;;;;;;;6119582;23;20336;-87
2023/03/17 03:43:34;;;;;;;7.50;3.50;;;;;;;;;;6120623;23;20144;-87
2023/03/17 03:45:59;;;;;;;10.18;4.20;;;;;;;;;;6106360;23;20483;-86
2023/03/17 03:48:25;;;;;;;7.63;3.15;;;;;;;;;;6096070;23;20064;-87
2023/03/17 03:50:55;;;;;;;7.80;3.33;;;;;;;;;;6145129;23;20443;-86
2023/03/17 03:53:21;;;;;;;6.55;3.33;;;;;;;;;;6095723;23;20029;-86
2023/03/17 03:55:46;;;;;;;7.00;3.55;;;;;;;;;;6146732;23;20021;-87
2023/03/17 03:58:12;;;;;;;7.82;3.53;;;;;;;;;;6096111;23;20022;-88
2023/03/17 04:00:38;;;;;;;6.38;3.22;;;;;;;;;;6095176;23;20399;-87
2023/03/17 04:03:06;;;;;;;6.70;3.10;;;;;;;;;;6095884;23;20021;-87
2023/03/17 04:05:33;;;;;;;9.55;4.03;;;;;;;;;;6096129;23;20411;-87
2023/03/17 04:07:58;;;;;;;9.02;3.58;;;;;;;;;;6146750;23;20021;-87
2023/03/17 04:10:23;;;;;;;6.65;3.63;;;;;;;;;;6119232;23;20329;-86
2023/03/17 04:12:49;;;;;;;9.05;3.58;;;;;;;;;;6096143;23;20028;-87
2023/03/17 04:15:16;;;;;;;6.70;3.53;;;;;;;;;;6119963;23;20014;-86
2023/03/17 04:17:42;;;;;;;5.95;2.92;;;;;;;;;;6119445;23;20017;-87
2023/03/17 04:20:08;;;;;;;8.20;3.55;;;;;;;;;;6096473;23;20728;-88
2023/03/17 04:22:33;;;;;;;9.68;3.38;;;;;;;;;;6119830;23;20029;-88
2023/03/17 04:24:59;;;;;;;5.72;2.95;;;;;;;;;;6120278;23;20328;-87
2023/03/17 04:27:25;;;;;;;7.68;3.78;;;;;;;;;;6095120;23;20045;-85
2023/03/17 04:29:51;;;;;;;6.80;3.28;;;;;;;;;;6095866;23;20041;-86
2023/03/17 04:32:17;;;;;;;6.70;3.20;;;;;;;;;;6095814;23;20411;-86
2023/03/17 04:34:42;;;;;;;7.20;3.10;;;;;;;;;;6119859;23;20044;-87
2023/03/17 04:37:09;;;;;;;7.40;3.22;;;;;;;;;;6101528;23;20595;-86
2023/03/17 04:39:35;;;;;;;9.32;3.15;;;;;;;;;;6144734;23;20024;-82
2023/03/17 04:42:01;;;;;;;6.72;3.33;;;;;;;;;;6141939;23;20514;-81
2023/03/17 04:44:27;;;;;;;8.82;3.50;;;;;;;;;;6144892;23;20017;-82
2023/03/17 04:46:52;;;;;;;6.78;3.03;;;;;;;;;;6144240;23;20056;-81
2023/03/17 04:49:21;;;;;;;5.45;2.90;;;;;;;;;;6147167;23;20022;-82
2023/03/17 04:51:47;;;;;;;6.90;3.35;;;;;;;;;;6143788;23;20021;-82
2023/03/17 04:54:12;;;;;;;8.00;3.20;;;;;;;;;;6143301;23;20018;-82
2023/03/17 04:56:38;;;;;;;7.20;3.28;;;;;;;;;;6144007;23;20022;-81
2023/03/17 04:59:04;;;;;;;8.15;3.05;;;;;;;;;;6119217;23;20067;-82
2023/03/17 05:01:30;;;;;;;8.02;3.50;;;;;;;;;;6144746;23;20459;-81
2023/03/17 05:03:56;;;;;;;7.80;3.60;;;;;;;;;;6144324;23;20452;-81
2023/03/17 05:06:21;;;;;;;8.52;3.20;;;;;;;;;;6118273;23;20021;-82
2023/03/17 05:08:47;;;;;;;5.82;2.95;;;;;;;;;;6145198;23;20444;-81
2023/03/17 05:11:12;;;;;;;8.07;2.88;;;;;;;;;;6120476;23;20396;-81
2023/03/17 05:13:39;;;;;;;6.28;2.83;;;;;;;;;;6144959;23;20068;-80
2023/03/17 05:16:07;;;;;;;9.23;3.80;;;;;;;;;;6144244;23;20009;-81
2023/03/17 05:18:33;;;;;;;7.10;3.10;;;;;;;;;;6122806;23;20249;-80
2023/03/17 05:20:59;;;;;;;9.55;3.15;;;;;;;;;;6120273;23;20481;-82
2023/03/17 05:23:24;;;;;;;8.68;3.75;;;;;;;;;;6119474;23;20013;-81
2023/03/17 05:25:51;;;;;;;8.75;3.35;;;;;;;;;;6118572;23;20021;-81
2023/03/17 05:28:18;;;;;;;8.80;3.25;;;;;;;;;;6119728;23;20518;-80
2023/03/17 05:30:45;;;;;;;6.40;2.65;;;;;;;;;;6143522;23;20098;-80
2023/03/17 05:33:10;;;;;;;8.35;3.33;;;;;;;;;;6144449;23;20017;-83
2023/03/17 05:35:36;;;;;;;8.73;3.45;;;;;;;;;;6118173;23;20329;-81
2023/03/17 05:38:02;;;;;;;7.50;2.67;;;;;;;;;;6116578;23;20410;-82
2023/03/17 05:40:28;;;;;;;6.85;2.78;;;;;;;;;;6142499;23;20018;-82
2023/03/17 05:42:53;;;;;;;8.13;3.03;;;;;;;;;;6118587;23;20016;-83
2023/03/17 05:45:19;;;;;;;8.73;3.28;;;;;;;;;;6118061;23;20418;-83
2023/03/17 05:47:46;;;;;;;9.63;2.80;;;;;;;;;;6117850;23;20096;-82
2023/03/17 05:50:12;;;;;;;7.88;3.30;;;;;;;;;;6143165;23;20021;-81
2023/03/17 05:52:38;;;;;;;5.45;2.90;;;;;;;;;;6118191;23;20022;-82
2023/03/17 05:55:06;;;;;;;6.13;2.80;;;;;;;;;;6134280;23;20562;-83
2023/03/17 05:57:31;;;;;;;7.75;3.15;;;;;;;;;;6117518;23;20474;-83
2023/03/17 05:59:57;;;;;;;6.50;2.75;;;;;;;;;;6145027;23;20021;-84
2023/03/17 06:02:23;;;;;;;5.30;2.60;;;;;;;;;;6141663;23;20092;-83
2023/03/17 06:04:51;;;;;;;7.82;3.22;;;;;;;;;;6118694;23;20013;-84
2023/03/17 06:07:17;;;;;;;7.30;2.83;;;;;;;;;;6142499;23;20020;-83
2023/03/17 06:09:43;;;;;;;8.27;3.13;;;;;;;;;;6115082;23;20017;-83
2023/03/17 06:12:09;;;;;;;7.55;3.03;;;;;;;;;;6105675;23;20028;-83
2023/03/17 06:14:39;;;;;;;5.80;2.97;;;;;;;;;;6118056;23;20005;-82
2023/03/17 06:17:06;;;;;;;9.32;3.35;;;;;;;;;;6142966;23;20456;-83
2023/03/17 06:19:31;;;;;;;9.07;3.55;;;;;;;;;;6142274;23;20017;-83
2023/03/17 06:21:57;;;;;;;7.30;3.10;;;;;;;;;;6119048;23;20144;-84
2023/03/17 06:24:24;;;;;;;8.35;3.15;;;;;;;;;;6143396;23;20013;-84
2023/03/17 06:26:51;;;;;;;5.40;2.72;;;;;;;;;;6141875;23;20148;-84
2023/03/17 06:29:17;;;;;;;8.02;3.40;;;;;;;;;;6119625;23;20363;-83
2023/03/17 06:31:49;;;;;;;5.90;3.00;;;;;;;;;;6117752;23;20017;-84
2023/03/17 06:34:15;;;;;;;5.95;2.80;;;;;;;;;;6119173;23;20343;-84
2023/03/17 06:36:42;;;;;;;6.80;3.00;;;;;;;;;;6117246;23;20032;-83
2023/03/17 06:39:08;;;;;;;6.25;2.92;;;;;;;;;;6143198;23;20037;-83
2023/03/17 06:41:35;;;;;;;5.53;2.55;;;;;;;;;;6140627;23;20021;-83
2023/03/17 06:44:01;;;;;;;6.18;2.55;;;;;;;;;;6142386;23;20010;-83
2023/03/17 06:46:27;;;;;;;7.13;2.95;;;;;;;;;;6117430;23;20021;-83
2023/03/17 06:48:53;;;;;;;7.70;2.90;;;;;;;;;;6109298;23;20481;-86
2023/03/17 06:51:18;;;;;;;6.63;2.95;;;;;;;;;;6155832;23;20025;-86
2023/03/17 06:53:45;;;;;;;6.35;2.95;;;;;;;;;;6117727;23;20013;-86
2023/03/17 06:56:10;;;;;;;6.03;2.65;;;;;;;;;;6117944;23;20097;-85
2023/03/17 06:58:36;;;;;;;7.20;2.97;;;;;;;;;;6119038;23;20041;-85
2023/03/17 07:01:03;;;;;;;4.95;2.40;;;;;;;;;;6143214;23;20010;-83
2023/03/17 07:03:29;;;;;;;8.30;3.83;;;;;;;;;;6142758;23;20021;-85
2023/03/17 07:05:55;;;;;;;6.67;2.80;;;;;;;;;;6143027;23;20315;-84
2023/03/17 07:08:21;;;;;;;5.55;2.70;;;;;;;;;;6143956;23;20249;-83
2023/03/17 07:10:46;;;;;;;11.68;2.72;;;;;;;;;;6118238;23;20132;-85
2023/03/17 07:13:13;;;;;;;6.82;2.75;;;;;;;;;;6143034;23;20013;-84
2023/03/17 07:15:39;;;;;;;5.97;2.70;;;;;;;;;;6144445;23;20021;-84
2023/03/17 07:18:05;;;;;;;6.57;2.80;;;;;;;;;;6144624;23;20024;-84
2023/03/17 07:20:31;;;;;;;7.70;3.05;;;;;;;;;;6119201;23;20091;-85
2023/03/17 07:22:57;;;;;;;9.02;3.22;;;;;;;;;;6119500;23;20387;-84
2023/03/17 07:25:25;;;;;;;7.13;2.90;;;;;;;;;;6143904;23;20017;-85
2023/03/17 07:27:50;;;;;;;6.13;2.78;;;;;;;;;;6120437;23;20084;-84
2023/03/17 07:30:17;;;;;;;6.22;2.83;;;;;;;;;;6145451;23;20111;-84
2023/03/17 07:32:44;;;;;;;7.18;2.92;;;;;;;;;;6146487;23;20014;-85
2023/03/17 07:35:10;;;;;;;5.37;2.80;;;;;;;;;;6117950;23;20017;-82
2023/03/17 07:37:36;;;;;;;6.40;2.50;;;;;;;;;;6120036;23;20021;-82
2023/03/17 07:40:04;;;;;;;5.95;2.80;;;;;;;;;;6144630;23;20351;-83
2023/03/17 07:42:31;;;;;;;5.97;2.70;;;;;;;;;;6120065;23;20386;-82
2023/03/17 07:44:56;;;;;;;8.27;3.05;;;;;;;;;;6120442;23;20068;-83
2023/03/17 07:47:22;;;;;;;6.78;2.58;;;;;;;;;;6119747;23;20455;-83
2023/03/17 07:49:48;;;;;;;6.55;2.85;;;;;;;;;;6121826;23;20423;-82
2023/03/17 07:52:13;;;;;;;7.30;2.72;;;;;;;;;;6143597;23;20021;-81
2023/03/17 07:54:40;;;;;;;6.95;2.78;;;;;;;;;;6121307;23;20148;-83
2023/03/17 07:57:05;;;;;;;5.50;2.85;;;;;;;;;;6145655;23;20410;-83
2023/03/17 07:59:31;;;;;;;5.82;2.83;;;;;;;;;;6120773;23;20021;-82
2023/03/17 08:01:58;;;;;;;5.57;2.40;;;;;;;;;;6121487;23;20084;-82
2023/03/17 08:04:26;;;;;;;6.07;2.60;;;;;;;;;;6123827;23;20022;-82
2023/03/17 08:06:53;;;;;;;5.97;2.72;;;;;;;;;;6147862;23;20084;-83
2023/03/17 08:09:21;;;;;;;5.10;2.60;;;;;;;;;;6147450;23;20018;-82
2023/03/17 08:11:46;;;;;;;;;;;;;;;;;;6145330;23;20018;-82
2023/03/17 08:14:12;;;;;;;6.38;2.70;;;;;;;;;;6168360;23;19909;-82
2023/03/17 08:16:37;;;;;;;7.10;2.92;;;;;;;;;;6120943;23;20100;-82
2023/03/17 08:19:03;;;;;;;5.15;2.50;;;;;;;;;;6121080;23;20006;-82
2023/03/17 08:21:29;;;;;;;5.13;2.58;;;;;;;;;;6121253;23;20013;-83
2023/03/17 08:23:55;;;;;;;6.00;2.72;;;;;;;;;;6149269;23;20020;-80
2023/03/17 08:26:21;;;;;;;10.45;3.45;;;;;;;;;;6146963;23;20373;-81
2023/03/17 08:28:47;;;;;;;5.78;2.58;;;;;;;;;;6148201;23;20005;-81
2023/03/17 08:31:21;;;;;;;5.35;2.47;;;;;;;;;;6145913;23;20013;-82
2023/03/17 08:33:49;;;;;;;5.68;2.75;;;;;;;;;;6122013;23;20459;-82
2023/03/17 08:36:15;;;;;;;11.38;4.13;;;;;;;;;;6144192;23;20040;-82
2023/03/17 08:38:42;;;;;;;6.25;2.72;;;;;;;;;;6120023;23;20022;-83
2023/03/17 08:41:11;;;;;;;8.17;2.77;;;;;;;;;;6119665;23;20009;-82
2023/03/17 08:43:39;;;;;;;7.45;2.90;;;;;;;;;;6096558;23;20021;-82
2023/03/17 08:46:12;;;;;;;6.78;2.90;;;;;;;;;;6120417;23;20028;-83
2023/03/17 08:48:37;;;;;;;4.95;2.50;;;;;;;;;;6120266;23;20014;-82
2023/03/17 08:51:05;;;;;;;5.47;2.53;;;;;;;;;;6145576;23;20017;-82
2023/03/17 08:53:33;;;;;;;5.13;2.30;;;;;;;;;;6096579;23;20017;-82
2023/03/17 08:56:00;;;;;;;5.60;2.17;;;;;;;;;;6096571;23;20045;-82
2023/03/17 08:58:26;;;;;;;5.45;2.72;;;;;;;;;;6096166;23;20056;-83
2023/03/17 09:00:52;;;;;;;13.65;3.75;;;;;;;;;;6121090;23;20033;-82
2023/03/17 09:03:17;;;;;;;11.50;3.78;;;;;;;;;;6098247;23;20010;-82
2023/03/17 09:05:44;;;;;;;9.00;3.42;;;;;;;;;;6097938;23;20022;-82
2023/03/17 09:08:10;;;;;;;9.63;3.55;;;;;;;;;;6120235;23;20093;-83
2023/03/17 09:10:36;;;;;;;11.88;3.75;;;;;;;;;;6119994;23;20513;-82
2023/03/17 09:13:05;;;;;;;8.02;2.58;;;;;;;;;;6120952;23;20017;-82
2023/03/17 09:15:32;;;;;;;4.60;2.15;;;;;;;;;;6094087;23;20017;-83
2023/03/17 09:17:58;;;;;;;5.78;2.15;;;;;;;;;;6119713;23;20467;-82
2023/03/17 09:20:24;;;;;;;6.55;2.55;;;;;;;;;;6094511;23;20083;-82
2023/03/17 09:22:50;;;;;;;7.20;2.47;;;;;;;;;;6121361;23;20099;-81
2023/03/17 09:25:16;;;;;;;5.00;2.50;;;;;;;;;;6145040;23;20021;-83
2023/03/17 09:27:42;;;;;;;6.22;2.63;;;;;;;;;;6094555;23;20018;-82
2023/03/17 09:30:09;;;;;;;7.07;2.17;;;;;;;;;;6095008;23;20052;-82
2023/03/17 09:32:36;;;;;;;4.65;2.33;;;;;;;;;;6119175;23;20328;-83
2023/03/17 09:35:04;;;;;;;5.68;2.20;;;;;;;;;;6145758;23;20080;-81
2023/03/17 09:37:29;;;;;;;7.53;2.40;;;;;;;;;;6106121;23;20025;-83
2023/03/17 09:39:56;;;;;;;6.68;2.60;;;;;;;;;;6143511;23;20485;-81
2023/03/17 09:42:37;;;;;;;5.20;2.73;;;;;;;;;;6140750;23;20045;-83
2023/03/17 09:45:27;;;;;;;4.97;2.45;;;;;;;;;;6143271;23;20021;-83
2023/03/17 09:48:25;;;;;;;5.03;2.35;;;;;;;;;;6144509;23;20100;-83
2023/03/17 09:51:00;;;;;;;4.88;2.60;;;;;;;;;;6145437;23;20013;-83
2023/03/17 09:53:32;;;;;;;5.28;2.45;;;;;;;;;;6144571;23;20211;-83
2023/03/17 09:56:01;;;;;;;5.20;2.13;;;;;;;;;;6143010;23;20455;-82
2023/03/17 09:58:33;;;;;;;7.13;2.40;;;;;;;;;;6144749;23;20405;-83
2023/03/17 10:01:00;;;;;;;5.75;2.65;;;;;;;;;;6118176;23;20758;-83
2023/03/17 10:03:26;;;;;;;6.20;2.80;;;;;;;;;;6119686;23;20321;-83
2023/03/17 10:05:52;;;;;;;7.13;2.70;;;;;;;;;;6142937;23;20084;-83
2023/03/17 10:08:32;;;;;;;5.78;2.15;;;;;;;;;;6144373;23;20017;-82
2023/03/17 10:11:03;;;;;;;4.55;2.33;;;;;;;;;;6143378;23;20570;-83
2023/03/17 10:13:43;;;;;;;6.53;2.15;;;;;;;;;;6119809;23;20022;-83
2023/03/17 10:16:20;;;;;;;5.50;2.50;;;;;;;;;;6144365;23;20363;-83
2023/03/17 10:18:51;;;;;;;6.82;2.60;;;;;;;;;;6120322;23;20448;-84
2023/03/17 10:21:18;;;;;;;5.25;2.10;;;;;;;;;;6143190;23;20396;-83
2023/03/17 10:23:44;;;;;;;4.80;2.30;;;;;;;;;;6119053;23;20467;-82
2023/03/17 10:26:45;;;;;;;4.32;2.50;;;;;;;;;;6142745;23;20020;-83
2023/03/17 10:29:15;;;;;;;4.28;2.10;;;;;;;;;;6118019;23;20447;-83
2023/03/17 10:31:40;;;;;;;6.32;2.55;;;;;;;;;;6118855;23;20024;-83
2023/03/17 10:34:28;;;;;;;5.13;2.55;;;;;;;;;;6143445;23;20495;-81
2023/03/17 10:36:58;;;;;;;5.43;2.47;;;;;;;;;;6167251;23;20029;-81
2023/03/17 10:39:24;;;;;;;4.97;2.25;;;;;;;;;;6144013;23;20144;-81
2023/03/17 10:42:02;;;;;;;4.50;2.15;;;;;;;;;;6144510;23;20476;-82
2023/03/17 10:44:39;;;;;;;5.40;2.40;;;;;;;;;;6144926;23;20014;-82
2023/03/17 10:47:05;;;;;;;7.10;2.42;;;;;;;;;;6143521;23;20526;-82
2023/03/17 10:49:35;;;;;;;4.93;1.92;;;;;;;;;;6122370;23;20013;-84
2023/03/17 10:52:06;;;;;;;6.55;2.50;;;;;;;;;;6146807;23;20083;-84
2023/03/17 10:54:34;;;;;;;6.32;2.17;;;;;;;;;;6146024;23;20013;-85
2023/03/17 10:57:02;;;;;;;3.95;1.90;;;;;;;;;;6120132;23;20025;-84
2023/03/17 10:59:30;;;;;;;6.55;2.53;;;;;;;;;;6144650;23;20014;-82
2023/03/17 11:02:00;;;;;;;5.72;2.42;;;;;;;;;;6118896;23;20112;-83
2023/03/17 11:04:34;;;;;;;5.15;2.17;;;;;;;;;;6123528;23;20025;-82
2023/03/17 11:07:05;;;;;;;4.70;1.85;;;;;;;;;;6152513;23;20025;-81
2023/03/17 11:09:34;;;;;;;5.28;2.28;;;;;;;;;;6149804;23;20064;-81
2023/03/17 11:12:38;;;;;;;4.57;2.13;;;;;;;;;;6120481;23;20096;-81
2023/03/17 11:15:08;;;;;;;4.05;2.10;;;;;;;;;;6143619;23;20067;-81
2023/03/17 11:17:42;;;;;;;5.68;2.10;;;;;;;;;;6121816;23;20053;-83
2023/03/17 11:20:08;;;;;;;5.40;2.35;;;;;;;;;;6145713;23;20029;-82
2023/03/17 11:22:37;;;;;;;5.53;2.35;;;;;;;;;;6145595;23;20018;-81
2023/03/17 11:25:18;;;;;;;5.05;2.03;;;;;;;;;;6147394;23;20092;-82
2023/03/17 11:28:10;;;;;;;4.32;2.30;;;;;;;;;;6143619;23;20028;-82
2023/03/17 11:30:38;;;;;;;5.18;2.40;;;;;;;;;;6148016;23;20246;-82
2023/03/17 11:33:41;;;;;;;4.43;2.05;;;;;;;;;;6153212;23;20009;-82
2023/03/17 11:36:10;;;;;;;5.03;2.15;;;;;;;;;;6154315;23;20097;-83
2023/03/17 11:38:58;;;;;;;4.40;2.28;;;;;;;;;;6125147;23;20009;-83
2023/03/17 11:41:43;;;;;;;4.32;1.80;;;;;;;;;;6097846;23;20013;-84
2023/03/17 11:44:37;;;;;;;4.20;1.88;;;;;;;;;;6112604;23;20025;-83
2023/03/17 11:47:45;;;;;;;5.15;2.10;;;;;;;;;;6118926;23;20420;-81
2023/03/17 11:50:35;;;;;;;3.83;1.80;;;;;;;;;;6096094;23;20025;-82
2023/03/17 11:53:22;;;;;;;5.47;2.45;;;;;;;;;;6119910;23;20017;-82
2023/03/17 11:55:54;;;;;;;5.75;2.15;;;;;;;;;;6119748;23;20075;-82
2023/03/17 11:58:23;;;;;;;4.63;2.28;;;;;;;;;;6096533;23;20016;-82
2023/03/17 12:00:55;;;;;;;4.50;2.20;;;;;;;;;;6144242;23;20025;-82
2023/03/17 12:03:56;;;;;;;3.72;1.88;;;;;;;;;;6095507;23;20017;-82
2023/03/17 12:06:31;;;;;;;4.40;2.20;;;;;;;;;;6058074;23;20025;-82
2023/03/17 12:09:18;;;;;;;4.25;1.88;;;;;;;;;;6094476;23;20087;-82
2023/03/17 12:11:45;;;;;;;4.97;1.95;;;;;;;;;;6119184;23;20013;-83
2023/03/17 12:14:27;;;;;;;3.90;2.00;;;;;;;;;;6118675;23;20017;-83
2023/03/17 12:17:00;;;;;;;5.68;2.10;;;;;;;;;;6119107;23;20529;-83
2023/03/17 12:19:35;;;;;;;4.93;1.92;;;;;;;;;;6119934;23;20383;-83
2023/03/17 12:22:07;;;;;;;5.53;1.80;;;;;;;;;;6119878;23;20029;-83
2023/03/17 12:24:37;;;;;;;4.38;2.00;;;;;;;;;;6119921;23;20020;-83
2023/03/17 12:27:08;;;;;;;5.18;1.90;;;;;;;;;;6144587;23;20017;-83
2023/03/17 12:29:52;;;;;;;5.25;1.88;;;;;;;;;;6118957;23;20020;-84
2023/03/17 12:32:41;;;;;;;4.30;1.83;;;;;;;;;;6119202;23;20455;-83
2023/03/17 12:35:30;;;;;;;4.93;1.80;;;;;;;;;;6118302;23;20009;-84
2023/03/17 12:37:58;;;;;;;4.15;1.50;;;;;;;;;;6137718;23;20022;-82
2023/03/17 12:40:30;;;;;;;;;;;;;;;;;;6131789;23;20519;-82
2023/03/17 12:42:59;;;;;;;4.60;1.50;;;;;;;;;;6168312;23;20346;-82
2023/03/17 12:45:34;;;;;;;4.30;1.75;;;;;;;;;;6143833;23;20025;-82
2023/03/17 12:48:37;;;;;;;3.45;1.30;;;;;;;;;;6142651;23;20017;-82
2023/03/17 12:51:21;;;;;;;5.20;1.92;;;;;;;;;;6144810;23;20321;-82
2023/03/17 12:53:49;;;;;;;4.32;1.70;;;;;;;;;;6145932;23;20021;-83
2023/03/17 12:56:25;;;;;;;4.30;1.90;;;;;;;;;;6095255;23;20736;-83
2023/03/17 12:58:52;;;;;;;5.50;1.85;;;;;;;;;;6144761;23;20339;-82
2023/03/17 13:01:37;;;;;;;4.50;1.52;;;;;;;;;;6143163;23;20013;-83
2023/03/17 13:04:27;;;;;;;4.35;1.90;;;;;;;;;;6131928;23;20017;-84
2023/03/17 13:07:25;;;;;;;4.30;1.60;;;;;;;;;;6143381;23;20014;-82
2023/03/17 13:09:53;;;;;;;4.85;1.67;;;;;;;;;;6070982;23;20241;-82
2023/03/17 13:12:43;;;;;;;4.60;1.75;;;;;;;;;;6143104;23;20470;-82
2023/03/17 13:15:47;;;;;;;4.13;1.30;;;;;;;;;;6142089;23;20089;-83
2023/03/17 13:18:15;;;;;;;3.92;1.48;;;;;;;;;;6144769;23;20032;-82
2023/03/17 13:20:40;;;;;;;3.72;1.58;;;;;;;;;;6143629;23;21560;-82
2023/03/17 13:23:09;;;;;;;4.75;1.48;;;;;;;;;;6143663;23;20124;-83
2023/03/17 13:25:37;;;;;;;4.90;1.55;;;;;;;;;;6145405;23;20025;-83
2023/03/17 13:28:11;;;;;;;3.78;1.30;;;;;;;;;;6144003;23;20070;-82
2023/03/17 13:30:51;;;;;;;3.78;1.38;;;;;;;;;;6144892;23;20080;-81
2023/03/17 13:33:22;;;;;;;4.07;1.63;;;;;;;;;;6143091;23;20017;-83
2023/03/17 13:35:53;;;;;;;3.10;1.38;;;;;;;;;;6119460;23;20040;-81
2023/03/17 13:38:34;;;;;;;6.05;1.73;;;;;;;;;;6140837;23;20028;-82
2023/03/17 13:41:34;;;;;;;3.97;1.40;;;;;;;;;;6104754;23;20538;-82
2023/03/17 13:44:18;;;;;;;3.30;1.40;;;;;;;;;;6146655;23;20018;-81
2023/03/17 13:46:46;;;;;;;4.13;1.77;;;;;;;;;;6145465;23;20076;-82
2023/03/17 13:49:20;;;;;;;3.70;1.25;;;;;;;;;;6121065;23;20013;-81
2023/03/17 13:52:07;;;;;;;3.55;1.30;;;;;;;;;;6147166;23;20029;-82
2023/03/17 13:54:41;;;;;;;3.50;1.90;;;;;;;;;;6117505;23;20044;-82
2023/03/17 13:57:25;;;;;;;3.13;1.30;;;;;;;;;;6122100;23;20013;-83
2023/03/17 13:59:55;;;;;;;3.60;1.52;;;;;;;;;;6146575;23;20010;-83
2023/03/17 14:02:22;;;;;;;3.80;1.35;;;;;;;;;;6143351;23;20518;-83
2023/03/17 14:04:54;;;;;;;3.72;1.40;;;;;;;;;;6141989;23;20016;-81
2023/03/17 14:07:26;;;;;;;4.28;1.25;;;;;;;;;;6141051;23;20352;-83
2023/03/17 14:09:58;;;;;;;3.92;1.50;;;;;;;;;;6109356;23;20482;-81
2023/03/17 14:13:01;;;;;;;3.38;1.20;;;;;;;;;;6129765;23;20455;-82
2023/03/17 14:15:31;;;;;;;4.70;1.60;;;;;;;;;;6116937;23;20021;-82
2023/03/17 14:18:09;;;;;;;3.33;1.10;;;;;;;;;;6118211;23;20013;-82
2023/03/17 14:20:35;;;;;;;3.40;1.42;;;;;;;;;;6117726;23;20013;-82
2023/03/17 14:23:03;;;;;;;3.45;1.30;;;;;;;;;;6145308;23;20010;-84
2023/03/17 14:25:36;;;;;;;3.95;1.35;;;;;;;;;;6120367;23;20016;-83
2023/03/17 14:28:06;;;;;;;3.33;1.23;;;;;;;;;;6120168;23;20013;-81
2023/03/17 14:30:32;;;;;;;3.38;1.40;;;;;;;;;;6095543;23;20364;-80
2023/03/17 14:33:23;;;;;;;4.07;1.40;;;;;;;;;;6145647;23;20033;-83
2023/03/17 14:35:51;;;;;;;3.97;1.30;;;;;;;;;;6125369;23;20379;-82
2023/03/17 14:38:21;;;;;;;;;;;;;;;;;;6123266;23;20032;-83
2023/03/17 14:40:58;;;;;;;3.97;1.33;;;;;;;;;;6148534;23;20223;-83
2023/03/17 14:43:25;;;;;;;3.70;1.33;;;;;;;;;;6119264;23;20400;-83
2023/03/17 14:45:52;;;;;;;2.97;1.10;;;;;;;;;;6121131;23;20359;-82
2023/03/17 14:48:25;;;;;;;3.05;1.30;;;;;;;;;;6144722;23;20328;-85
2023/03/17 14:50:56;;;;;;;3.97;1.38;;;;;;;;;;6145873;23;20084;-83
2023/03/17 14:53:35;;;;;;;3.88;1.50;;;;;;;;;;6144073;23;20457;-82
2023/03/17 14:56:00;;;;;;;3.67;1.63;;;;;;;;;;6118361;23;20017;-82
2023/03/17 14:58:30;;;;;;;3.40;1.17;;;;;;;;;;6143513;23;20088;-82
2023/03/17 15:01:15;;;;;;;2.60;1.20;;;;;;;;;;6116995;23;20428;-83
2023/03/17 15:04:11;;;;;;;3.25;1.27;;;;;;;;;;6146979;23;20063;-83